sensor_id;sensor_type;location;lat;lon;timestamp;temperature;humidity
4556;DHT22;2290;48.674;9.018;2023-04-03T00:01:16;5.50;99.90
4556;DHT22;2290;48.674;9.018;2023-04-03T00:03:42;5.40;99.90
4556;DHT22;2290;48.674;9.018;2023-04-03T00:06:10;5.50;99.90
4556;DHT22;2290;48.674;9.018;2023-04-03T00:08:38;5.50;99.90
4556;DHT22;2290;48.674;9.018;2023-04-03T00:11:04;5.40;99.90
4556;DHT22;2290;48.674;9.018;2023-04-03T00:13:30;5.40;99.90
4556;DHT22;2290;48.674;9.018;2023-04-03T00:15:56;5.30;99.90
4556;DHT22;2290;48.674;9.018;2023-04-03T00:18:21;5.30;99.90
4556;DHT22;2290;48.674;9.018;2023-04-03T00:20:48;5.40;99.90
4556;DHT22;2290;48.674;9.018;2023-04-03T00:23:15;5.30;99.90
4556;DHT22;2290;48.674;9.018;2023-04-03T00:25:41;5.30;99.90
4556;DHT22;2290;48.674;9.018;2023-04-03T00:28:07;5.30;99.90
4556;DHT22;2290;48.674;9.018;2023-04-03T00:30:33;5.30;99.90
4556;DHT22;2290;48.674;9.018;2023-04-03T00:32:59;5.30;99.90
4556;DHT22;2290;48.674;9.018;2023-04-03T00:35:26;5.20;99.90
4556;DHT22;2290;48.674;9.018;2023-04-03T00:37:53;5.20;99.90
4556;DHT22;2290;48.674;9.018;2023-04-03T00:40:23;5.20;99.90
4556;DHT22;2290;48.674;9.018;2023-04-03T00:42:51;5.20;99.90
4556;DHT22;2290;48.674;9.018;2023-04-03T00:47:54;4.90;99.90
4556;DHT22;2290;48.674;9.018;2023-04-03T00:50:21;5.00;99.90
4556;DHT22;2290;48.674;9.018;2023-04-03T00:52:49;4.90;99.90
4556;DHT22;2290;48.674;9.018;2023-04-03T00:55:15;4.90;99.90
4556;DHT22;2290;48.674;9.018;2023-04-03T00:57:42;4.90;99.90
4556;DHT22;2290;48.674;9.018;2023-04-03T01:00:10;4.90;99.90
4556;DHT22;2290;48.674;9.018;2023-04-03T01:02:36;4.90;99.90
4556;DHT22;2290;48.674;9.018;2023-04-03T01:05:04;4.90;99.90
4556;DHT22;2290;48.674;9.018;2023-04-03T01:07:31;4.90;99.90
4556;DHT22;2290;48.674;9.018;2023-04-03T01:09:59;4.80;99.90
4556;DHT22;2290;48.674;9.018;2023-04-03T01:12:35;4.90;99.90
4556;DHT22;2290;48.674;9.018;2023-04-03T01:15:07;4.90;99.90
4556;DHT22;2290;48.674;9.018;2023-04-03T01:17:53;4.90;99.90
4556;DHT22;2290;48.674;9.018;2023-04-03T01:25:53;4.90;99.90
4556;DHT22;2290;48.674;9.018;2023-04-03T01:28:28;4.90;99.90
4556;DHT22;2290;48.674;9.018;2023-04-03T01:31:27;5.00;99.90
4556;DHT22;2290;48.674;9.018;2023-04-03T01:33:55;5.00;99.90
4556;DHT22;2290;48.674;9.018;2023-04-03T01:36:30;5.00;99.90
4556;DHT22;2290;48.674;9.018;2023-04-03T01:38:56;5.00;99.90
4556;DHT22;2290;48.674;9.018;2023-04-03T01:41:22;4.90;99.90
4556;DHT22;2290;48.674;9.018;2023-04-03T01:43:49;4.80;99.90
4556;DHT22;2290;48.674;9.018;2023-04-03T01:46:15;4.80;99.90
4556;DHT22;2290;48.674;9.018;2023-04-03T01:48:41;4.80;99.90
4556;DHT22;2290;48.674;9.018;2023-04-03T01:51:07;4.90;99.90
4556;DHT22;2290;48.674;9.018;2023-04-03T01:53:33;4.90;99.90
4556;DHT22;2290;48.674;9.018;2023-04-03T01:55:59;5.00;99.90
4556;DHT22;2290;48.674;9.018;2023-04-03T01:58:24;5.00;99.90
4556;DHT22;2290;48.674;9.018;2023-04-03T02:00:51;5.00;99.90
4556;DHT22;2290;48.674;9.018;2023-04-03T02:03:17;5.00;99.90
4556;DHT22;2290;48.674;9.018;2023-04-03T02:05:43;4.90;99.90
4556;DHT22;2290;48.674;9.018;2023-04-03T02:08:09;4.90;99.90
4556;DHT22;2290;48.674;9.018;2023-04-03T02:10:36;4.80;99.90
4556;DHT22;2290;48.674;9.018;2023-04-03T02:13:02;4.90;99.90
4556;DHT22;2290;48.674;9.018;2023-04-03T02:15:29;4.80;99.90
4556;DHT22;2290;48.674;9.018;2023-04-03T02:17:54;4.80;99.90
4556;DHT22;2290;48.674;9.018;2023-04-03T02:20:20;4.80;99.90
4556;DHT22;2290;48.674;9.018;2023-04-03T02:22:47;4.90;99.90
4556;DHT22;2290;48.674;9.018;2023-04-03T02:25:14;4.90;99.90
4556;DHT22;2290;48.674;9.018;2023-04-03T02:27:40;5.00;99.90
4556;DHT22;2290;48.674;9.018;2023-04-03T02:30:06;5.00;99.90
4556;DHT22;2290;48.674;9.018;2023-04-03T02:32:33;5.00;99.90
4556;DHT22;2290;48.674;9.018;2023-04-03T02:34:59;4.90;99.90
4556;DHT22;2290;48.674;9.018;2023-04-03T02:37:25;5.00;99.90
4556;DHT22;2290;48.674;9.018;2023-04-03T02:39:50;4.90;99.90
4556;DHT22;2290;48.674;9.018;2023-04-03T02:42:16;4.90;99.90
4556;DHT22;2290;48.674;9.018;2023-04-03T02:44:41;4.90;99.90
4556;DHT22;2290;48.674;9.018;2023-04-03T02:47:07;4.90;99.90
4556;DHT22;2290;48.674;9.018;2023-04-03T02:49:33;4.90;99.90
4556;DHT22;2290;48.674;9.018;2023-04-03T02:52:02;4.90;99.90
4556;DHT22;2290;48.674;9.018;2023-04-03T02:54:28;4.90;99.90
4556;DHT22;2290;48.674;9.018;2023-04-03T02:56:56;4.90;99.90
4556;DHT22;2290;48.674;9.018;2023-04-03T02:59:22;4.80;99.90
4556;DHT22;2290;48.674;9.018;2023-04-03T03:01:48;4.80;99.90
4556;DHT22;2290;48.674;9.018;2023-04-03T03:04:15;4.90;99.90
4556;DHT22;2290;48.674;9.018;2023-04-03T03:06:40;4.90;99.90
4556;DHT22;2290;48.674;9.018;2023-04-03T03:09:07;4.90;99.90
4556;DHT22;2290;48.674;9.018;2023-04-03T03:11:32;4.90;99.90
4556;DHT22;2290;48.674;9.018;2023-04-03T03:13:59;5.00;99.90
4556;DHT22;2290;48.674;9.018;2023-04-03T03:16:25;5.00;99.90
4556;DHT22;2290;48.674;9.018;2023-04-03T03:18:51;4.90;99.90
4556;DHT22;2290;48.674;9.018;2023-04-03T03:21:16;4.90;99.90
4556;DHT22;2290;48.674;9.018;2023-04-03T03:23:42;4.80;99.90
4556;DHT22;2290;48.674;9.018;2023-04-03T03:26:09;4.80;99.90
4556;DHT22;2290;48.674;9.018;2023-04-03T03:28:36;4.80;99.90
4556;DHT22;2290;48.674;9.018;2023-04-03T03:31:03;4.80;99.90
4556;DHT22;2290;48.674;9.018;2023-04-03T03:33:29;4.90;99.90
4556;DHT22;2290;48.674;9.018;2023-04-03T03:35:55;4.90;99.90
4556;DHT22;2290;48.674;9.018;2023-04-03T03:38:23;4.90;99.90
4556;DHT22;2290;48.674;9.018;2023-04-03T03:40:50;4.90;99.90
4556;DHT22;2290;48.674;9.018;2023-04-03T03:43:16;4.90;99.90
4556;DHT22;2290;48.674;9.018;2023-04-03T03:45:43;4.90;99.90
4556;DHT22;2290;48.674;9.018;2023-04-03T03:48:09;4.90;99.90
4556;DHT22;2290;48.674;9.018;2023-04-03T03:50:35;5.00;99.90
4556;DHT22;2290;48.674;9.018;2023-04-03T03:53:00;4.90;99.90
4556;DHT22;2290;48.674;9.018;2023-04-03T03:55:26;4.90;99.90
4556;DHT22;2290;48.674;9.018;2023-04-03T03:57:52;4.80;99.90
4556;DHT22;2290;48.674;9.018;2023-04-03T04:00:19;4.90;99.90
4556;DHT22;2290;48.674;9.018;2023-04-03T04:02:44;4.80;99.90
4556;DHT22;2290;48.674;9.018;2023-04-03T04:05:11;4.80;99.90
4556;DHT22;2290;48.674;9.018;2023-04-03T04:07:36;4.70;99.90
4556;DHT22;2290;48.674;9.018;2023-04-03T04:10:02;4.70;99.90
4556;DHT22;2290;48.674;9.018;2023-04-03T04:12:28;4.70;99.90
4556;DHT22;2290;48.674;9.018;2023-04-03T04:14:54;4.70;99.90
4556;DHT22;2290;48.674;9.018;2023-04-03T04:17:21;4.70;99.90
4556;DHT22;2290;48.674;9.018;2023-04-03T04:19:47;4.70;99.90
4556;DHT22;2290;48.674;9.018;2023-04-03T04:22:12;4.70;99.90
4556;DHT22;2290;48.674;9.018;2023-04-03T04:24:38;4.70;99.90
4556;DHT22;2290;48.674;9.018;2023-04-03T04:27:04;4.70;99.90
4556;DHT22;2290;48.674;9.018;2023-04-03T04:29:29;4.70;99.90
4556;DHT22;2290;48.674;9.018;2023-04-03T04:32:00;4.70;99.90
4556;DHT22;2290;48.674;9.018;2023-04-03T04:34:25;4.70;99.90
4556;DHT22;2290;48.674;9.018;2023-04-03T04:36:51;4.70;99.90
4556;DHT22;2290;48.674;9.018;2023-04-03T04:39:17;4.70;99.90
4556;DHT22;2290;48.674;9.018;2023-04-03T04:41:43;4.70;99.90
4556;DHT22;2290;48.674;9.018;2023-04-03T04:44:08;4.70;99.90
4556;DHT22;2290;48.674;9.018;2023-04-03T04:46:34;4.70;99.90
4556;DHT22;2290;48.674;9.018;2023-04-03T04:48:59;4.70;99.90
4556;DHT22;2290;48.674;9.018;2023-04-03T04:51:25;4.60;99.90
4556;DHT22;2290;48.674;9.018;2023-04-03T04:53:50;4.60;99.90
4556;DHT22;2290;48.674;9.018;2023-04-03T04:56:16;4.60;99.90
4556;DHT22;2290;48.674;9.018;2023-04-03T04:58:41;4.70;99.90
4556;DHT22;2290;48.674;9.018;2023-04-03T05:01:09;4.70;99.90
4556;DHT22;2290;48.674;9.018;2023-04-03T05:03:35;4.70;99.90
4556;DHT22;2290;48.674;9.018;2023-04-03T05:06:01;4.80;99.90
4556;DHT22;2290;48.674;9.018;2023-04-03T05:08:27;4.70;99.90
4556;DHT22;2290;48.674;9.018;2023-04-03T05:10:52;4.70;99.90
4556;DHT22;2290;48.674;9.018;2023-04-03T05:13:19;4.70;99.90
4556;DHT22;2290;48.674;9.018;2023-04-03T05:15:45;4.80;99.90
4556;DHT22;2290;48.674;9.018;2023-04-03T05:18:11;4.70;99.90
4556;DHT22;2290;48.674;9.018;2023-04-03T05:20:37;4.70;99.90
4556;DHT22;2290;48.674;9.018;2023-04-03T05:23:02;4.70;99.90
4556;DHT22;2290;48.674;9.018;2023-04-03T05:25:28;4.80;99.90
4556;DHT22;2290;48.674;9.018;2023-04-03T05:27:54;4.80;99.90
4556;DHT22;2290;48.674;9.018;2023-04-03T05:30:21;4.60;99.90
4556;DHT22;2290;48.674;9.018;2023-04-03T05:32:46;4.60;99.90
4556;DHT22;2290;48.674;9.018;2023-04-03T05:35:12;4.60;99.90
4556;DHT22;2290;48.674;9.018;2023-04-03T05:37:38;4.70;99.90
4556;DHT22;2290;48.674;9.018;2023-04-03T05:40:04;4.70;99.90
4556;DHT22;2290;48.674;9.018;2023-04-03T05:42:30;4.70;99.90
4556;DHT22;2290;48.674;9.018;2023-04-03T05:44:55;4.80;99.90
4556;DHT22;2290;48.674;9.018;2023-04-03T05:47:21;4.70;99.90
4556;DHT22;2290;48.674;9.018;2023-04-03T05:49:47;4.70;99.90
4556;DHT22;2290;48.674;9.018;2023-04-03T05:52:23;4.70;99.90
4556;DHT22;2290;48.674;9.018;2023-04-03T05:54:51;4.70;99.90
4556;DHT22;2290;48.674;9.018;2023-04-03T05:57:17;4.70;99.90
4556;DHT22;2290;48.674;9.018;2023-04-03T05:59:45;4.80;99.90
4556;DHT22;2290;48.674;9.018;2023-04-03T06:02:19;4.90;99.90
4556;DHT22;2290;48.674;9.018;2023-04-03T06:04:46;4.90;99.90
4556;DHT22;2290;48.674;9.018;2023-04-03T06:07:15;4.90;99.90
4556;DHT22;2290;48.674;9.018;2023-04-03T06:09:42;5.00;99.90
4556;DHT22;2290;48.674;9.018;2023-04-03T06:12:08;5.00;99.90
4556;DHT22;2290;48.674;9.018;2023-04-03T06:14:34;5.00;99.90
4556;DHT22;2290;48.674;9.018;2023-04-03T06:17:00;5.10;99.90
4556;DHT22;2290;48.674;9.018;2023-04-03T06:19:25;5.10;99.90
4556;DHT22;2290;48.674;9.018;2023-04-03T06:21:51;5.20;99.90
4556;DHT22;2290;48.674;9.018;2023-04-03T06:24:17;5.20;99.90
4556;DHT22;2290;48.674;9.018;2023-04-03T06:26:43;5.20;99.90
4556;DHT22;2290;48.674;9.018;2023-04-03T06:29:09;5.20;99.90
4556;DHT22;2290;48.674;9.018;2023-04-03T06:31:35;5.30;99.90
4556;DHT22;2290;48.674;9.018;2023-04-03T06:34:02;5.20;99.90
4556;DHT22;2290;48.674;9.018;2023-04-03T06:36:28;5.20;99.90
4556;DHT22;2290;48.674;9.018;2023-04-03T06:38:54;5.20;99.90
4556;DHT22;2290;48.674;9.018;2023-04-03T06:41:20;5.30;99.90
4556;DHT22;2290;48.674;9.018;2023-04-03T06:43:47;5.30;99.90
4556;DHT22;2290;48.674;9.018;2023-04-03T06:46:21;5.30;99.90
4556;DHT22;2290;48.674;9.018;2023-04-03T06:48:48;5.30;99.90
4556;DHT22;2290;48.674;9.018;2023-04-03T06:51:24;5.30;99.90
4556;DHT22;2290;48.674;9.018;2023-04-03T06:53:51;5.40;99.90
4556;DHT22;2290;48.674;9.018;2023-04-03T06:56:17;5.40;99.90
4556;DHT22;2290;48.674;9.018;2023-04-03T06:58:44;5.30;99.90
4556;DHT22;2290;48.674;9.018;2023-04-03T07:01:13;5.30;99.90
4556;DHT22;2290;48.674;9.018;2023-04-03T07:03:39;5.30;99.90
4556;DHT22;2290;48.674;9.018;2023-04-03T07:06:06;5.40;99.90
4556;DHT22;2290;48.674;9.018;2023-04-03T07:08:33;5.40;99.90
4556;DHT22;2290;48.674;9.018;2023-04-03T07:10:58;5.70;99.90
4556;DHT22;2290;48.674;9.018;2023-04-03T07:13:24;5.90;99.90
4556;DHT22;2290;48.674;9.018;2023-04-03T07:15:51;6.10;99.90
4556;DHT22;2290;48.674;9.018;2023-04-03T07:18:16;6.20;99.90
4556;DHT22;2290;48.674;9.018;2023-04-03T07:20:43;6.20;99.90
4556;DHT22;2290;48.674;9.018;2023-04-03T07:23:09;6.40;99.90
4556;DHT22;2290;48.674;9.018;2023-04-03T07:25:35;6.50;99.90
4556;DHT22;2290;48.674;9.018;2023-04-03T07:28:00;6.30;99.90
4556;DHT22;2290;48.674;9.018;2023-04-03T07:30:26;6.20;99.90
4556;DHT22;2290;48.674;9.018;2023-04-03T07:32:52;6.00;99.90
4556;DHT22;2290;48.674;9.018;2023-04-03T07:35:17;6.00;99.90
4556;DHT22;2290;48.674;9.018;2023-04-03T07:37:43;6.00;99.90
4556;DHT22;2290;48.674;9.018;2023-04-03T07:40:11;6.00;99.90
4556;DHT22;2290;48.674;9.018;2023-04-03T07:42:36;6.10;99.90
4556;DHT22;2290;48.674;9.018;2023-04-03T07:45:03;6.10;99.90
4556;DHT22;2290;48.674;9.018;2023-04-03T07:47:30;5.90;99.90
4556;DHT22;2290;48.674;9.018;2023-04-03T07:49:57;5.90;99.90
4556;DHT22;2290;48.674;9.018;2023-04-03T07:52:23;5.90;99.90
4556;DHT22;2290;48.674;9.018;2023-04-03T07:54:49;5.90;99.90
4556;DHT22;2290;48.674;9.018;2023-04-03T07:57:14;5.90;99.90
4556;DHT22;2290;48.674;9.018;2023-04-03T07:59:40;6.00;99.90
4556;DHT22;2290;48.674;9.018;2023-04-03T08:02:11;6.00;99.90
4556;DHT22;2290;48.674;9.018;2023-04-03T08:04:38;6.00;99.90
4556;DHT22;2290;48.674;9.018;2023-04-03T08:07:04;6.10;99.90
4556;DHT22;2290;48.674;9.018;2023-04-03T08:09:31;6.10;99.90
4556;DHT22;2290;48.674;9.018;2023-04-03T08:11:58;6.20;99.90
4556;DHT22;2290;48.674;9.018;2023-04-03T08:14:24;6.40;99.90
4556;DHT22;2290;48.674;9.018;2023-04-03T08:16:50;6.40;99.90
4556;DHT22;2290;48.674;9.018;2023-04-03T08:19:16;6.40;99.90
4556;DHT22;2290;48.674;9.018;2023-04-03T08:21:44;6.30;99.90
4556;DHT22;2290;48.674;9.018;2023-04-03T08:24:10;6.30;99.90
4556;DHT22;2290;48.674;9.018;2023-04-03T08:26:36;6.30;99.90
4556;DHT22;2290;48.674;9.018;2023-04-03T08:29:02;6.40;99.90
4556;DHT22;2290;48.674;9.018;2023-04-03T08:31:28;6.40;99.90
4556;DHT22;2290;48.674;9.018;2023-04-03T08:33:53;6.50;99.90
4556;DHT22;2290;48.674;9.018;2023-04-03T08:36:25;6.50;99.90
4556;DHT22;2290;48.674;9.018;2023-04-03T08:38:52;6.70;99.90
4556;DHT22;2290;48.674;9.018;2023-04-03T08:41:29;6.80;99.90
4556;DHT22;2290;48.674;9.018;2023-04-03T08:44:17;6.90;99.90
4556;DHT22;2290;48.674;9.018;2023-04-03T08:49:52;6.90;99.90
4556;DHT22;2290;48.674;9.018;2023-04-03T08:52:23;7.00;99.90
4556;DHT22;2290;48.674;9.018;2023-04-03T08:54:55;7.00;99.90
4556;DHT22;2290;48.674;9.018;2023-04-03T08:57:35;7.10;99.90
4556;DHT22;2290;48.674;9.018;2023-04-03T09:00:18;7.10;99.90
4556;DHT22;2290;48.674;9.018;2023-04-03T09:02:47;6.90;99.90
4556;DHT22;2290;48.674;9.018;2023-04-03T09:05:16;7.00;99.90
4556;DHT22;2290;48.674;9.018;2023-04-03T09:07:54;7.10;99.90
4556;DHT22;2290;48.674;9.018;2023-04-03T09:10:28;7.30;99.90
4556;DHT22;2290;48.674;9.018;2023-04-03T09:13:05;7.20;99.90
4556;DHT22;2290;48.674;9.018;2023-04-03T09:15:33;7.10;99.90
4556;DHT22;2290;48.674;9.018;2023-04-03T09:18:04;7.30;99.90
4556;DHT22;2290;48.674;9.018;2023-04-03T09:23:33;7.20;99.90
4556;DHT22;2290;48.674;9.018;2023-04-03T09:26:11;7.20;99.90
4556;DHT22;2290;48.674;9.018;2023-04-03T09:28:40;7.30;99.90
4556;DHT22;2290;48.674;9.018;2023-04-03T09:31:19;7.30;99.90
4556;DHT22;2290;48.674;9.018;2023-04-03T09:33:46;7.20;99.90
4556;DHT22;2290;48.674;9.018;2023-04-03T09:36:12;7.00;99.90
4556;DHT22;2290;48.674;9.018;2023-04-03T09:38:39;6.90;99.90
4556;DHT22;2290;48.674;9.018;2023-04-03T09:41:12;6.90;99.90
4556;DHT22;2290;48.674;9.018;2023-04-03T09:43:39;6.90;99.90
4556;DHT22;2290;48.674;9.018;2023-04-03T09:46:25;7.00;99.90
4556;DHT22;2290;48.674;9.018;2023-04-03T09:49:03;7.00;99.90
4556;DHT22;2290;48.674;9.018;2023-04-03T09:51:30;7.00;99.90
4556;DHT22;2290;48.674;9.018;2023-04-03T09:53:57;7.00;99.90
4556;DHT22;2290;48.674;9.018;2023-04-03T09:56:29;6.90;99.90
4556;DHT22;2290;48.674;9.018;2023-04-03T10:01:37;6.80;99.90
4556;DHT22;2290;48.674;9.018;2023-04-03T10:04:19;6.60;99.90
4556;DHT22;2290;48.674;9.018;2023-04-03T10:06:49;6.60;99.90
4556;DHT22;2290;48.674;9.018;2023-04-03T10:12:00;6.70;99.90
4556;DHT22;2290;48.674;9.018;2023-04-03T10:14:29;6.70;99.90
4556;DHT22;2290;48.674;9.018;2023-04-03T10:26:17;6.90;99.90
4556;DHT22;2290;48.674;9.018;2023-04-03T10:34:21;7.10;99.90
4556;DHT22;2290;48.674;9.018;2023-04-03T10:36:47;7.40;99.90
4556;DHT22;2290;48.674;9.018;2023-04-03T10:42:03;7.70;99.90
4556;DHT22;2290;48.674;9.018;2023-04-03T10:44:59;7.70;99.90
4556;DHT22;2290;48.674;9.018;2023-04-03T10:58:54;7.50;99.90
4556;DHT22;2290;48.674;9.018;2023-04-03T11:01:26;7.70;99.90
4556;DHT22;2290;48.674;9.018;2023-04-03T11:03:58;7.70;99.90
4556;DHT22;2290;48.674;9.018;2023-04-03T11:06:30;7.60;99.90
4556;DHT22;2290;48.674;9.018;2023-04-03T11:09:25;7.50;99.90
4556;DHT22;2290;48.674;9.018;2023-04-03T11:11:56;7.40;99.90
4556;DHT22;2290;48.674;9.018;2023-04-03T11:14:31;7.40;99.90
4556;DHT22;2290;48.674;9.018;2023-04-03T11:20:05;7.50;99.90
4556;DHT22;2290;48.674;9.018;2023-04-03T11:22:35;7.50;99.90
4556;DHT22;2290;48.674;9.018;2023-04-03T11:25:23;7.40;99.90
4556;DHT22;2290;48.674;9.018;2023-04-03T11:27:55;7.50;99.90
4556;DHT22;2290;48.674;9.018;2023-04-03T11:30:30;7.60;99.90
4556;DHT22;2290;48.674;9.018;2023-04-03T11:35:36;7.70;99.90
4556;DHT22;2290;48.674;9.018;2023-04-03T11:38:04;7.60;99.90
4556;DHT22;2290;48.674;9.018;2023-04-03T11:40:34;7.60;99.90
4556;DHT22;2290;48.674;9.018;2023-04-03T11:43:22;7.60;99.90
4556;DHT22;2290;48.674;9.018;2023-04-03T11:46:06;7.50;99.90
4556;DHT22;2290;48.674;9.018;2023-04-03T11:53:52;7.50;99.90
4556;DHT22;2290;48.674;9.018;2023-04-03T12:04:20;7.40;99.90
4556;DHT22;2290;48.674;9.018;2023-04-03T12:09:35;7.20;99.90
4556;DHT22;2290;48.674;9.018;2023-04-03T12:12:34;7.00;99.90
4556;DHT22;2290;48.674;9.018;2023-04-03T12:17:46;7.10;99.90
4556;DHT22;2290;48.674;9.018;2023-04-03T12:20:52;7.10;99.90
4556;DHT22;2290;48.674;9.018;2023-04-03T12:23:37;7.20;99.90
4556;DHT22;2290;48.674;9.018;2023-04-03T12:26:25;7.30;99.90
4556;DHT22;2290;48.674;9.018;2023-04-03T12:28:53;7.40;99.90
4556;DHT22;2290;48.674;9.018;2023-04-03T12:31:20;7.40;99.90
4556;DHT22;2290;48.674;9.018;2023-04-03T12:34:15;7.50;99.90
4556;DHT22;2290;48.674;9.018;2023-04-03T12:37:08;7.50;99.90
4556;DHT22;2290;48.674;9.018;2023-04-03T12:45:21;7.10;99.90
4556;DHT22;2290;48.674;9.018;2023-04-03T12:47:56;7.10;99.90
4556;DHT22;2290;48.674;9.018;2023-04-03T12:50:31;7.10;99.90
4556;DHT22;2290;48.674;9.018;2023-04-03T12:53:10;7.10;99.90
4556;DHT22;2290;48.674;9.018;2023-04-03T12:55:36;7.20;99.90
4556;DHT22;2290;48.674;9.018;2023-04-03T12:58:22;7.10;99.90
4556;DHT22;2290;48.674;9.018;2023-04-03T13:01:00;7.10;99.90
4556;DHT22;2290;48.674;9.018;2023-04-03T13:03:26;7.10;99.90
4556;DHT22;2290;48.674;9.018;2023-04-03T13:06:02;7.10;99.90
4556;DHT22;2290;48.674;9.018;2023-04-03T13:08:29;7.10;99.90
4556;DHT22;2290;48.674;9.018;2023-04-03T13:11:22;7.30;99.90
4556;DHT22;2290;48.674;9.018;2023-04-03T13:14:00;7.50;99.90
4556;DHT22;2290;48.674;9.018;2023-04-03T13:16:27;7.80;99.90
4556;DHT22;2290;48.674;9.018;2023-04-03T13:18:54;8.00;99.90
4556;DHT22;2290;48.674;9.018;2023-04-03T13:21:30;8.10;99.90
4556;DHT22;2290;48.674;9.018;2023-04-03T13:23:59;8.10;99.90
4556;DHT22;2290;48.674;9.018;2023-04-03T13:26:29;8.00;99.90
4556;DHT22;2290;48.674;9.018;2023-04-03T13:28:59;7.90;99.90
4556;DHT22;2290;48.674;9.018;2023-04-03T13:31:29;7.80;99.90
4556;DHT22;2290;48.674;9.018;2023-04-03T13:34:20;7.70;99.90
4556;DHT22;2290;48.674;9.018;2023-04-03T13:36:54;7.80;99.90
4556;DHT22;2290;48.674;9.018;2023-04-03T13:39:27;8.00;99.90
4556;DHT22;2290;48.674;9.018;2023-04-03T13:41:56;8.00;99.90
4556;DHT22;2290;48.674;9.018;2023-04-03T13:46:53;8.10;99.90
4556;DHT22;2290;48.674;9.018;2023-04-03T13:49:43;8.00;99.90
4556;DHT22;2290;48.674;9.018;2023-04-03T13:52:30;8.10;99.90
4556;DHT22;2290;48.674;9.018;2023-04-03T13:55:03;8.30;99.90
4556;DHT22;2290;48.674;9.018;2023-04-03T13:57:36;8.50;99.80
4556;DHT22;2290;48.674;9.018;2023-04-03T14:00:20;8.50;99.40
4556;DHT22;2290;48.674;9.018;2023-04-03T14:02:47;8.50;99.80
4556;DHT22;2290;48.674;9.018;2023-04-03T14:05:13;8.40;99.60
4556;DHT22;2290;48.674;9.018;2023-04-03T14:07:39;8.40;99.80
4556;DHT22;2290;48.674;9.018;2023-04-03T14:10:05;8.20;99.90
4556;DHT22;2290;48.674;9.018;2023-04-03T14:12:37;8.10;99.40
4556;DHT22;2290;48.674;9.018;2023-04-03T14:15:22;8.00;98.70
4556;DHT22;2290;48.674;9.018;2023-04-03T14:17:49;7.80;98.90
4556;DHT22;2290;48.674;9.018;2023-04-03T14:20:20;7.60;99.40
4556;DHT22;2290;48.674;9.018;2023-04-03T14:22:46;7.50;99.90
4556;DHT22;2290;48.674;9.018;2023-04-03T14:25:12;7.60;99.80
4556;DHT22;2290;48.674;9.018;2023-04-03T14:27:42;7.70;99.80
4556;DHT22;2290;48.674;9.018;2023-04-03T14:30:18;7.80;99.90
4556;DHT22;2290;48.674;9.018;2023-04-03T14:32:44;7.80;99.70
4556;DHT22;2290;48.674;9.018;2023-04-03T14:35:10;7.80;99.50
4556;DHT22;2290;48.674;9.018;2023-04-03T14:37:36;7.80;99.10
4556;DHT22;2290;48.674;9.018;2023-04-03T14:40:04;7.70;99.30
4556;DHT22;2290;48.674;9.018;2023-04-03T14:42:33;7.70;99.20
4556;DHT22;2290;48.674;9.018;2023-04-03T14:45:05;7.70;99.80
4556;DHT22;2290;48.674;9.018;2023-04-03T14:47:31;7.70;99.70
4556;DHT22;2290;48.674;9.018;2023-04-03T14:49:57;7.70;99.60
4556;DHT22;2290;48.674;9.018;2023-04-03T14:52:33;7.60;99.30
4556;DHT22;2290;48.674;9.018;2023-04-03T14:55:01;7.60;99.40
4556;DHT22;2290;48.674;9.018;2023-04-03T14:57:29;7.50;99.70
4556;DHT22;2290;48.674;9.018;2023-04-03T14:59:55;7.40;99.90
4556;DHT22;2290;48.674;9.018;2023-04-03T15:02:37;7.50;99.90
4556;DHT22;2290;48.674;9.018;2023-04-03T15:05:06;7.50;99.90
4556;DHT22;2290;48.674;9.018;2023-04-03T15:07:38;7.50;99.70
4556;DHT22;2290;48.674;9.018;2023-04-03T15:10:25;7.50;99.80
4556;DHT22;2290;48.674;9.018;2023-04-03T15:12:52;7.50;99.90
4556;DHT22;2290;48.674;9.018;2023-04-03T15:15:19;7.70;99.90
4556;DHT22;2290;48.674;9.018;2023-04-03T15:17:47;8.50;99.50
4556;DHT22;2290;48.674;9.018;2023-04-03T15:20:18;11.40;98.30
4556;DHT22;2290;48.674;9.018;2023-04-03T15:22:44;14.70;96.80
4556;DHT22;2290;48.674;9.018;2023-04-03T15:25:10;17.10;92.40
4556;DHT22;2290;48.674;9.018;2023-04-03T15:27:37;18.10;89.40
4556;DHT22;2290;48.674;9.018;2023-04-03T15:30:04;18.80;82.00
4556;DHT22;2290;48.674;9.018;2023-04-03T15:32:31;17.80;77.70
4556;DHT22;2290;48.674;9.018;2023-04-03T15:34:57;15.70;78.40
4556;DHT22;2290;48.674;9.018;2023-04-03T15:37:22;13.90;79.20
4556;DHT22;2290;48.674;9.018;2023-04-03T15:39:48;12.70;82.20
4556;DHT22;2290;48.674;9.018;2023-04-03T15:42:14;11.70;85.90
4556;DHT22;2290;48.674;9.018;2023-04-03T15:44:39;10.90;87.00
4556;DHT22;2290;48.674;9.018;2023-04-03T15:47:05;10.50;87.10
4556;DHT22;2290;48.674;9.018;2023-04-03T15:49:33;10.20;89.40
4556;DHT22;2290;48.674;9.018;2023-04-03T15:51:59;9.80;90.30
4556;DHT22;2290;48.674;9.018;2023-04-03T15:54:25;9.50;90.30
4556;DHT22;2290;48.674;9.018;2023-04-03T15:56:51;9.30;90.50
4556;DHT22;2290;48.674;9.018;2023-04-03T15:59:17;9.10;90.70
4556;DHT22;2290;48.674;9.018;2023-04-03T16:01:43;8.80;90.80
4556;DHT22;2290;48.674;9.018;2023-04-03T16:04:10;8.70;91.00
4556;DHT22;2290;48.674;9.018;2023-04-03T16:06:37;8.60;91.60
4556;DHT22;2290;48.674;9.018;2023-04-03T16:09:03;8.70;91.50
4556;DHT22;2290;48.674;9.018;2023-04-03T16:11:29;8.60;91.70
4556;DHT22;2290;48.674;9.018;2023-04-03T16:13:55;8.60;91.40
4556;DHT22;2290;48.674;9.018;2023-04-03T16:16:22;8.50;91.30
4556;DHT22;2290;48.674;9.018;2023-04-03T16:18:48;8.40;91.80
4556;DHT22;2290;48.674;9.018;2023-04-03T16:21:15;8.30;91.40
4556;DHT22;2290;48.674;9.018;2023-04-03T16:23:41;8.30;92.10
4556;DHT22;2290;48.674;9.018;2023-04-03T16:26:07;8.60;91.90
4556;DHT22;2290;48.674;9.018;2023-04-03T16:28:33;9.20;91.30
4556;DHT22;2290;48.674;9.018;2023-04-03T16:31:00;9.20;90.70
4556;DHT22;2290;48.674;9.018;2023-04-03T16:33:26;9.00;90.40
4556;DHT22;2290;48.674;9.018;2023-04-03T16:35:52;8.80;90.90
4556;DHT22;2290;48.674;9.018;2023-04-03T16:38:18;8.70;91.20
4556;DHT22;2290;48.674;9.018;2023-04-03T16:40:45;8.60;91.50
4556;DHT22;2290;48.674;9.018;2023-04-03T16:43:11;8.60;91.50
4556;DHT22;2290;48.674;9.018;2023-04-03T16:45:37;8.60;91.80
4556;DHT22;2290;48.674;9.018;2023-04-03T16:48:03;8.60;91.50
4556;DHT22;2290;48.674;9.018;2023-04-03T16:50:29;8.50;92.00
4556;DHT22;2290;48.674;9.018;2023-04-03T16:52:55;8.40;91.40
4556;DHT22;2290;48.674;9.018;2023-04-03T16:55:20;8.30;91.50
4556;DHT22;2290;48.674;9.018;2023-04-03T16:57:46;8.20;91.30
4556;DHT22;2290;48.674;9.018;2023-04-03T17:00:12;8.10;91.00
4556;DHT22;2290;48.674;9.018;2023-04-03T17:02:39;7.80;90.90
4556;DHT22;2290;48.674;9.018;2023-04-03T17:05:06;7.70;90.70
4556;DHT22;2290;48.674;9.018;2023-04-03T17:07:32;7.50;90.70
4556;DHT22;2290;48.674;9.018;2023-04-03T17:09:58;7.40;90.90
4556;DHT22;2290;48.674;9.018;2023-04-03T17:12:23;7.30;91.10
4556;DHT22;2290;48.674;9.018;2023-04-03T17:14:49;7.30;91.20
4556;DHT22;2290;48.674;9.018;2023-04-03T17:17:15;7.40;91.00
4556;DHT22;2290;48.674;9.018;2023-04-03T17:19:43;7.30;90.90
4556;DHT22;2290;48.674;9.018;2023-04-03T17:22:09;7.20;91.00
4556;DHT22;2290;48.674;9.018;2023-04-03T17:24:35;7.20;91.00
4556;DHT22;2290;48.674;9.018;2023-04-03T17:27:02;7.20;90.90
4556;DHT22;2290;48.674;9.018;2023-04-03T17:29:27;7.20;90.60
4556;DHT22;2290;48.674;9.018;2023-04-03T17:31:54;7.00;90.90
4556;DHT22;2290;48.674;9.018;2023-04-03T17:34:20;7.00;91.20
4556;DHT22;2290;48.674;9.018;2023-04-03T17:36:46;7.00;91.40
4556;DHT22;2290;48.674;9.018;2023-04-03T17:39:12;6.90;91.70
4556;DHT22;2290;48.674;9.018;2023-04-03T17:41:39;6.90;92.10
4556;DHT22;2290;48.674;9.018;2023-04-03T17:44:05;7.00;92.00
4556;DHT22;2290;48.674;9.018;2023-04-03T17:46:31;7.20;91.90
4556;DHT22;2290;48.674;9.018;2023-04-03T17:48:57;7.30;91.90